Address 0xef32ce85a7f13fccb000cc14230b84b9423802df

 
Txn Hash Method
Block
From
To
Value [Txn Fee]
0xbbe6e01eacb780dbf1dfdec486c99d15bcdb47c6c5380e1d25ec41568db00279Exec Transaction195460792021-09-26 19:28:5410 mins ago0xef32ce85a7f13fccb000cc14230b84b9423802dfOUT 0x3b790a9c44118fbdee6f25d8eb8593d323cb335d0 MATIC0.018216358
0x106b0c11fbb895ae0999533a0788c01583c428f9f2ed4f196b18655d6b27a13bExecute Meta Tra...195457542021-09-26 19:13:1826 mins ago0xef32ce85a7f13fccb000cc14230b84b9423802dfOUT 0x89aac1f5ccdd54dd8a09e5c858f19a665e4fa32b0 MATIC0.00214167
0x448910c78385360a9915ea9d0fd6bc9e15f9a64930d648e2b780569abed30e84Execute Meta Tra...195451292021-09-26 18:46:3652 mins ago0xef32ce85a7f13fccb000cc14230b84b9423802dfOUT 0x89aac1f5ccdd54dd8a09e5c858f19a665e4fa32b0 MATIC0.00214155
0x9a84a038f5ddaa316f2e98bc89d47ffea0acefedf8dd24193737f4c25c7e95fcExecute Meta Tra...195447172021-09-26 18:29:301 hr 10 mins ago0xef32ce85a7f13fccb000cc14230b84b9423802dfOUT 0x89aac1f5ccdd54dd8a09e5c858f19a665e4fa32b0 MATIC0.01070835
0x057ebde28ed087fc4b280d48bdf41bb2c82db215de327b27d1bfce7c10e530a8Execute Meta Tra...195444832021-09-26 18:20:301 hr 19 mins ago0xef32ce85a7f13fccb000cc14230b84b9423802dfOUT 0x89aac1f5ccdd54dd8a09e5c858f19a665e4fa32b0 MATIC0.0045403404
0x12dde12564b4640e4e3f46c5c986364e5d480dbb1e46a6c51f2416f61424b513Execute Meta Tra...195440272021-09-26 18:03:381 hr 35 mins ago0xef32ce85a7f13fccb000cc14230b84b9423802dfOUT 0x89aac1f5ccdd54dd8a09e5c858f19a665e4fa32b0 MATIC0.01285002
0x5367e2f97154c3664debd9294c4512c430606cc43e326fd9f166bd643929bbd0Execute Meta Tra...195437712021-09-26 17:54:501 hr 44 mins ago0xef32ce85a7f13fccb000cc14230b84b9423802dfOUT 0x89aac1f5ccdd54dd8a09e5c858f19a665e4fa32b0 MATIC0.0214179
0x9ff987cfc401f928f0e412f1cad1a30afdb02f15680d6ca9fb73fe70ca9b4529Execute Meta Tra...195435192021-09-26 17:44:021 hr 55 mins ago0xef32ce85a7f13fccb000cc14230b84b9423802dfOUT 0x89aac1f5ccdd54dd8a09e5c858f19a665e4fa32b0 MATIC0.00214167
0xddfd50d1bbbbabc119eca26aebd4acfac8a83d1b085ff41e65cdbde354adff99Execute Meta Tra...195433362021-09-26 17:37:432 hrs 1 min ago0xef32ce85a7f13fccb000cc14230b84b9423802dfOUT 0x89aac1f5ccdd54dd8a09e5c858f19a665e4fa32b0 MATIC0.003212145
0x29fd8a4b44f41f71b466c2898e42e64d9732cf862337fb038d2ffcfdd1ad70d1Execute Meta Tra...195430992021-09-26 17:29:332 hrs 10 mins ago0xef32ce85a7f13fccb000cc14230b84b9423802dfOUT 0x89aac1f5ccdd54dd8a09e5c858f19a665e4fa32b0 MATIC0.0214167
0xa7673ac5147e92f636e93eacb42149233fb7a0be9cad1f57c3909225ce6cfa27Execute Meta Tra...195428272021-09-26 17:19:332 hrs 20 mins ago0xef32ce85a7f13fccb000cc14230b84b9423802dfOUT 0x89aac1f5ccdd54dd8a09e5c858f19a665e4fa32b0 MATIC0.003212505
0xf1e5b2b56b0e8cbfda31e2ac8f454645f7d9ec6ce735803613dc0a63c5f8491bExecute Meta Tra...195425462021-09-26 17:08:272 hrs 31 mins ago0xef32ce85a7f13fccb000cc14230b84b9423802dfOUT 0x89aac1f5ccdd54dd8a09e5c858f19a665e4fa32b0 MATIC0.007496265
0x02f74db9f120661e3e20d73190ebdacec46d8716456a325d32dd01671b1f828c0x41706c4e195422642021-09-26 16:58:292 hrs 41 mins ago0xef32ce85a7f13fccb000cc14230b84b9423802dfOUT 0x86c80a8aa58e0a4fa09a69624c31ab2a6cad56b80 MATIC0.001854425
0x172f810df7002143f10b8c2ca8551a581ca8354190a4dd788c4798fd82c110b4Execute Meta Tra...195420382021-09-26 16:50:132 hrs 49 mins ago0xef32ce85a7f13fccb000cc14230b84b9423802dfOUT 0x89aac1f5ccdd54dd8a09e5c858f19a665e4fa32b0 MATIC0.009851682
0xdbfc986f42a223fbcb7ee38c9a1a381366a27c105d7a53752132525525e3fc95Execute Meta Tra...195416352021-09-26 16:34:143 hrs 5 mins ago0xef32ce85a7f13fccb000cc14230b84b9423802dfOUT 0x89aac1f5ccdd54dd8a09e5c858f19a665e4fa32b0 MATIC0.00040319
0xfeeaa9a0e53a41d27c872f1a6a50bb34954d6c79001e42ad5277416d8c7d5841Execute Meta Tra...195413192021-09-26 16:23:223 hrs 16 mins ago0xef32ce85a7f13fccb000cc14230b84b9423802dfOUT 0x89aac1f5ccdd54dd8a09e5c858f19a665e4fa32b0 MATIC0.005354175
0x30197efe9fc50d8dcdb0458f19a2024edd271bc2f05aa32a9355dc61706cff980x41706c4e195411442021-09-26 16:15:123 hrs 24 mins ago0xef32ce85a7f13fccb000cc14230b84b9423802dfOUT 0x86c80a8aa58e0a4fa09a69624c31ab2a6cad56b80 MATIC0.0113632
0xeaf44f23cf55179c0b8f20173a0318302ce8aaa849cbd440a79f86ebff900b62Execute Meta Tra...195408882021-09-26 16:06:243 hrs 33 mins ago0xef32ce85a7f13fccb000cc14230b84b9423802dfOUT 0x89aac1f5ccdd54dd8a09e5c858f19a665e4fa32b0 MATIC0.003426672
0xdf193b16bd8256e5bc6352f55915452176fa8570db8878b3ca76c0e73065082fExecute Meta Tra...195406412021-09-26 15:57:533 hrs 41 mins ago0xef32ce85a7f13fccb000cc14230b84b9423802dfOUT 0x89aac1f5ccdd54dd8a09e5c858f19a665e4fa32b0 MATIC0.00214179
0x468198ad579fc938abe165eab187cbfe479b184153351acb6564db4fe18775edExecute Meta Tra...195404922021-09-26 15:51:053 hrs 48 mins ago0xef32ce85a7f13fccb000cc14230b84b9423802dfOUT 0x89aac1f5ccdd54dd8a09e5c858f19a665e4fa32b0 MATIC0.00214167
0x431f2fe1f8f903eacd50ce53f2f4a42db644574bd0b0e7b5a792f6b889c2f018Execute Meta Tra...195403402021-09-26 15:45:083 hrs 54 mins ago0xef32ce85a7f13fccb000cc14230b84b9423802dfOUT 0x89aac1f5ccdd54dd8a09e5c858f19a665e4fa32b0 MATIC0.00214179
0x4c468a07be65d56f1add0791235c20298aa08fcccfa8890e2b7e1786b1abb9fdExecute Meta Tra...195401492021-09-26 15:38:144 hrs 1 min ago0xef32ce85a7f13fccb000cc14230b84b9423802dfOUT 0x89aac1f5ccdd54dd8a09e5c858f19a665e4fa32b0 MATIC0.016490859
0x3c1230e31330647da77b622394d71425f5a191b3045cbf8eaf92223305a6c0230x41706c4e195394872021-09-26 15:13:354 hrs 25 mins ago0xef32ce85a7f13fccb000cc14230b84b9423802dfOUT 0x86c80a8aa58e0a4fa09a69624c31ab2a6cad56b80 MATIC0.0022579065
0x7218ca2299920179f82e95d6cb2e446af9c33ad11d57f449893bb720c47f3107Execute Meta Tra...195393902021-09-26 15:05:454 hrs 33 mins ago0xef32ce85a7f13fccb000cc14230b84b9423802dfOUT 0x89aac1f5ccdd54dd8a09e5c858f19a665e4fa32b0 MATIC0.003958349188
0x658bfa839213080ef670a328e2e6d12e6cd32eb467f1fcaa01883bdc02c12537Execute Meta Tra...195391462021-09-26 14:57:254 hrs 42 mins ago0xef32ce85a7f13fccb000cc14230b84b9423802dfOUT 0x89aac1f5ccdd54dd8a09e5c858f19a665e4fa32b0 MATIC0.0214167
[ Download CSV Export 
Parent Txn Hash Block From To Value
Loading

Contract Name:
0 MATIC

Compiler Version
0

Optimization Enabled:
0 MATIC

Other Settings:
-NA-
Block Transaction Gas Used Reward
Age Block Fee Address BC Fee Address Voting Power Jailed Incoming
Block Uncle Number Difficulty Gas Used Reward
Loading
Loading
Make sure to use the "Vote Down" button for any spammy posts, and the "Vote Up" for interesting conversations.